sensor_id;sensor_type;location;lat;lon;timestamp;temperature;humidity
39849;DHT22;25518;47.878;15.914;2023-01-15T00:00:26;1.70;99.90
39849;DHT22;25518;47.878;15.914;2023-01-15T00:03:16;1.60;99.90
39849;DHT22;25518;47.878;15.914;2023-01-15T00:06:06;1.70;99.90
39849;DHT22;25518;47.878;15.914;2023-01-15T00:08:55;1.80;99.90
39849;DHT22;25518;47.878;15.914;2023-01-15T00:11:45;0.60;99.90
39849;DHT22;25518;47.878;15.914;2023-01-15T00:14:35;1.70;99.90
39849;DHT22;25518;47.878;15.914;2023-01-15T00:17:24;1.70;99.90
39849;DHT22;25518;47.878;15.914;2023-01-15T00:20:14;1.70;99.90
39849;DHT22;25518;47.878;15.914;2023-01-15T00:23:04;1.60;99.90
39849;DHT22;25518;47.878;15.914;2023-01-15T00:25:55;1.50;99.90
39849;DHT22;25518;47.878;15.914;2023-01-15T00:29:05;1.50;99.90
39849;DHT22;25518;47.878;15.914;2023-01-15T00:32:02;1.60;99.90
39849;DHT22;25518;47.878;15.914;2023-01-15T00:34:52;1.80;99.90
39849;DHT22;25518;47.878;15.914;2023-01-15T00:37:41;1.80;99.90
39849;DHT22;25518;47.878;15.914;2023-01-15T00:40:31;1.80;99.90
39849;DHT22;25518;47.878;15.914;2023-01-15T00:43:21;1.70;99.90
39849;DHT22;25518;47.878;15.914;2023-01-15T00:46:10;1.60;99.90
39849;DHT22;25518;47.878;15.914;2023-01-15T00:49:01;1.70;99.90
39849;DHT22;25518;47.878;15.914;2023-01-15T00:51:50;1.70;99.90
39849;DHT22;25518;47.878;15.914;2023-01-15T00:54:40;1.80;99.90
39849;DHT22;25518;47.878;15.914;2023-01-15T00:57:30;1.60;99.90
39849;DHT22;25518;47.878;15.914;2023-01-15T01:00:19;1.60;99.90
39849;DHT22;25518;47.878;15.914;2023-01-15T01:03:09;1.60;99.90
39849;DHT22;25518;47.878;15.914;2023-01-15T01:06:00;1.60;99.90
39849;DHT22;25518;47.878;15.914;2023-01-15T01:08:50;1.50;99.90
39849;DHT22;25518;47.878;15.914;2023-01-15T01:11:40;1.40;99.90
39849;DHT22;25518;47.878;15.914;2023-01-15T01:14:29;1.40;99.90
39849;DHT22;25518;47.878;15.914;2023-01-15T01:17:19;1.30;99.90
39849;DHT22;25518;47.878;15.914;2023-01-15T01:20:12;1.40;99.90
39849;DHT22;25518;47.878;15.914;2023-01-15T01:23:02;1.50;99.90
39849;DHT22;25518;47.878;15.914;2023-01-15T01:25:52;1.60;99.90
39849;DHT22;25518;47.878;15.914;2023-01-15T01:28:42;1.50;99.90
39849;DHT22;25518;47.878;15.914;2023-01-15T01:31:32;1.40;99.90
39849;DHT22;25518;47.878;15.914;2023-01-15T01:34:22;1.20;99.90
39849;DHT22;25518;47.878;15.914;2023-01-15T01:37:11;1.20;99.90
39849;DHT22;25518;47.878;15.914;2023-01-15T01:40:01;1.20;99.90
39849;DHT22;25518;47.878;15.914;2023-01-15T01:42:51;1.30;99.90
39849;DHT22;25518;47.878;15.914;2023-01-15T01:45:40;1.50;99.90
39849;DHT22;25518;47.878;15.914;2023-01-15T01:48:32;1.40;99.90
39849;DHT22;25518;47.878;15.914;2023-01-15T01:51:27;1.40;99.90
39849;DHT22;25518;47.878;15.914;2023-01-15T01:54:20;1.40;99.90
39849;DHT22;25518;47.878;15.914;2023-01-15T01:57:12;1.40;99.90
39849;DHT22;25518;47.878;15.914;2023-01-15T02:00:03;1.40;99.90
39849;DHT22;25518;47.878;15.914;2023-01-15T02:02:55;1.50;99.90
39849;DHT22;25518;47.878;15.914;2023-01-15T02:05:48;1.50;99.90
39849;DHT22;25518;47.878;15.914;2023-01-15T02:08:39;1.40;99.90
39849;DHT22;25518;47.878;15.914;2023-01-15T02:11:29;1.50;99.90
39849;DHT22;25518;47.878;15.914;2023-01-15T02:14:24;1.50;99.90
39849;DHT22;25518;47.878;15.914;2023-01-15T02:17:24;1.60;99.90
39849;DHT22;25518;47.878;15.914;2023-01-15T02:20:22;1.50;99.90
39849;DHT22;25518;47.878;15.914;2023-01-15T02:26:49;1.40;99.90
39849;DHT22;25518;47.878;15.914;2023-01-15T02:33:09;1.40;99.90
39849;DHT22;25518;47.878;15.914;2023-01-15T02:35:59;1.70;99.90
39849;DHT22;25518;47.878;15.914;2023-01-15T02:38:51;1.50;99.90
39849;DHT22;25518;47.878;15.914;2023-01-15T02:41:47;1.60;99.90
39849;DHT22;25518;47.878;15.914;2023-01-15T02:44:43;1.60;99.90
39849;DHT22;25518;47.878;15.914;2023-01-15T02:47:37;1.50;99.90
39849;DHT22;25518;47.878;15.914;2023-01-15T02:50:32;1.60;99.90
39849;DHT22;25518;47.878;15.914;2023-01-15T02:53:26;1.80;99.90
39849;DHT22;25518;47.878;15.914;2023-01-15T02:56:21;1.70;99.90
39849;DHT22;25518;47.878;15.914;2023-01-15T02:59:19;1.70;99.90
39849;DHT22;25518;47.878;15.914;2023-01-15T03:19:28;1.70;99.90
39849;DHT22;25518;47.878;15.914;2023-01-15T03:22:39;1.70;99.90
39849;DHT22;25518;47.878;15.914;2023-01-15T03:25:34;1.70;99.90
39849;DHT22;25518;47.878;15.914;2023-01-15T03:28:28;1.60;99.90
39849;DHT22;25518;47.878;15.914;2023-01-15T03:31:19;1.60;99.90
39849;DHT22;25518;47.878;15.914;2023-01-15T03:34:10;1.50;99.90
39849;DHT22;25518;47.878;15.914;2023-01-15T03:36:59;1.60;99.90
39849;DHT22;25518;47.878;15.914;2023-01-15T03:39:50;1.70;99.90
39849;DHT22;25518;47.878;15.914;2023-01-15T03:45:36;1.50;99.90
39849;DHT22;25518;47.878;15.914;2023-01-15T03:48:43;1.50;99.90
39849;DHT22;25518;47.878;15.914;2023-01-15T03:51:42;1.60;99.90
39849;DHT22;25518;47.878;15.914;2023-01-15T03:57:54;1.50;99.90
39849;DHT22;25518;47.878;15.914;2023-01-15T04:00:52;1.50;99.90
39849;DHT22;25518;47.878;15.914;2023-01-15T04:03:43;1.60;99.90
39849;DHT22;25518;47.878;15.914;2023-01-15T04:06:36;1.50;99.90
39849;DHT22;25518;47.878;15.914;2023-01-15T04:09:27;1.50;99.90
39849;DHT22;25518;47.878;15.914;2023-01-15T04:12:16;1.60;99.90
39849;DHT22;25518;47.878;15.914;2023-01-15T04:15:07;1.70;99.90
39849;DHT22;25518;47.878;15.914;2023-01-15T04:17:56;1.60;99.90
39849;DHT22;25518;47.878;15.914;2023-01-15T04:20:46;1.50;99.90
39849;DHT22;25518;47.878;15.914;2023-01-15T04:23:36;1.70;99.90
39849;DHT22;25518;47.878;15.914;2023-01-15T04:26:26;1.70;99.90
39849;DHT22;25518;47.878;15.914;2023-01-15T04:29:16;1.70;99.90
39849;DHT22;25518;47.878;15.914;2023-01-15T04:32:05;1.70;99.90
39849;DHT22;25518;47.878;15.914;2023-01-15T04:34:56;1.90;99.90
39849;DHT22;25518;47.878;15.914;2023-01-15T04:37:46;1.90;99.90
39849;DHT22;25518;47.878;15.914;2023-01-15T04:40:36;1.90;99.90
39849;DHT22;25518;47.878;15.914;2023-01-15T04:43:45;1.90;99.90
39849;DHT22;25518;47.878;15.914;2023-01-15T04:46:55;1.90;99.90
39849;DHT22;25518;47.878;15.914;2023-01-15T04:49:46;1.80;99.90
39849;DHT22;25518;47.878;15.914;2023-01-15T04:52:36;1.80;99.90
39849;DHT22;25518;47.878;15.914;2023-01-15T04:55:26;1.90;99.90
39849;DHT22;25518;47.878;15.914;2023-01-15T04:58:15;1.80;99.90
39849;DHT22;25518;47.878;15.914;2023-01-15T05:01:14;1.80;99.90
39849;DHT22;25518;47.878;15.914;2023-01-15T05:04:05;1.90;99.90
39849;DHT22;25518;47.878;15.914;2023-01-15T05:06:55;1.80;99.90
39849;DHT22;25518;47.878;15.914;2023-01-15T05:09:44;1.90;99.90
39849;DHT22;25518;47.878;15.914;2023-01-15T05:12:35;1.90;99.90
39849;DHT22;25518;47.878;15.914;2023-01-15T05:15:25;2.10;99.90
39849;DHT22;25518;47.878;15.914;2023-01-15T05:18:14;1.90;99.90
39849;DHT22;25518;47.878;15.914;2023-01-15T05:21:04;1.90;99.90
39849;DHT22;25518;47.878;15.914;2023-01-15T05:23:54;1.80;99.90
39849;DHT22;25518;47.878;15.914;2023-01-15T05:26:46;1.90;99.90
39849;DHT22;25518;47.878;15.914;2023-01-15T05:29:36;2.00;99.90
39849;DHT22;25518;47.878;15.914;2023-01-15T05:32:25;2.00;99.90
39849;DHT22;25518;47.878;15.914;2023-01-15T05:35:15;2.00;99.90
39849;DHT22;25518;47.878;15.914;2023-01-15T05:38:04;2.10;99.90
39849;DHT22;25518;47.878;15.914;2023-01-15T05:40:55;2.00;99.90
39849;DHT22;25518;47.878;15.914;2023-01-15T05:43:45;2.10;99.90
39849;DHT22;25518;47.878;15.914;2023-01-15T05:46:36;2.10;99.90
39849;DHT22;25518;47.878;15.914;2023-01-15T05:49:27;2.20;99.90
39849;DHT22;25518;47.878;15.914;2023-01-15T05:52:19;2.20;99.90
39849;DHT22;25518;47.878;15.914;2023-01-15T05:55:09;2.10;99.90
39849;DHT22;25518;47.878;15.914;2023-01-15T05:57:58;1.90;99.90
39849;DHT22;25518;47.878;15.914;2023-01-15T06:00:48;2.30;99.90
39849;DHT22;25518;47.878;15.914;2023-01-15T06:03:38;2.30;99.90
39849;DHT22;25518;47.878;15.914;2023-01-15T06:06:30;2.20;99.90
39849;DHT22;25518;47.878;15.914;2023-01-15T06:09:20;2.20;99.90
39849;DHT22;25518;47.878;15.914;2023-01-15T06:12:10;2.20;99.90
39849;DHT22;25518;47.878;15.914;2023-01-15T06:15:00;2.20;99.90
39849;DHT22;25518;47.878;15.914;2023-01-15T06:17:50;2.20;99.90
39849;DHT22;25518;47.878;15.914;2023-01-15T06:20:41;2.30;99.90
39849;DHT22;25518;47.878;15.914;2023-01-15T06:23:31;2.30;99.90
39849;DHT22;25518;47.878;15.914;2023-01-15T06:26:21;2.30;99.90
39849;DHT22;25518;47.878;15.914;2023-01-15T06:29:11;2.30;99.90
39849;DHT22;25518;47.878;15.914;2023-01-15T06:32:01;2.20;99.90
39849;DHT22;25518;47.878;15.914;2023-01-15T06:34:51;2.20;99.90
39849;DHT22;25518;47.878;15.914;2023-01-15T06:37:40;2.30;99.90
39849;DHT22;25518;47.878;15.914;2023-01-15T06:40:30;2.50;99.90
39849;DHT22;25518;47.878;15.914;2023-01-15T06:43:19;2.30;99.90
39849;DHT22;25518;47.878;15.914;2023-01-15T06:46:29;2.20;99.90
39849;DHT22;25518;47.878;15.914;2023-01-15T06:49:38;2.20;99.90
39849;DHT22;25518;47.878;15.914;2023-01-15T06:52:28;2.40;99.90
39849;DHT22;25518;47.878;15.914;2023-01-15T06:55:18;2.40;99.90
39849;DHT22;25518;47.878;15.914;2023-01-15T06:58:07;2.40;99.90
39849;DHT22;25518;47.878;15.914;2023-01-15T07:00:57;2.40;99.90
39849;DHT22;25518;47.878;15.914;2023-01-15T07:03:49;2.50;99.90
39849;DHT22;25518;47.878;15.914;2023-01-15T07:06:38;2.50;99.90
39849;DHT22;25518;47.878;15.914;2023-01-15T07:09:28;2.50;99.90
39849;DHT22;25518;47.878;15.914;2023-01-15T07:12:18;2.50;99.90
39849;DHT22;25518;47.878;15.914;2023-01-15T07:15:08;2.40;99.90
39849;DHT22;25518;47.878;15.914;2023-01-15T07:17:58;2.30;99.90
39849;DHT22;25518;47.878;15.914;2023-01-15T07:20:48;2.40;99.90
39849;DHT22;25518;47.878;15.914;2023-01-15T07:23:38;2.40;99.90
39849;DHT22;25518;47.878;15.914;2023-01-15T07:26:27;2.30;99.90
39849;DHT22;25518;47.878;15.914;2023-01-15T07:29:17;2.40;99.90
39849;DHT22;25518;47.878;15.914;2023-01-15T07:32:06;2.50;99.90
39849;DHT22;25518;47.878;15.914;2023-01-15T07:34:56;2.40;99.90
39849;DHT22;25518;47.878;15.914;2023-01-15T07:37:50;2.50;99.90
39849;DHT22;25518;47.878;15.914;2023-01-15T07:40:40;2.40;99.90
39849;DHT22;25518;47.878;15.914;2023-01-15T07:43:30;2.60;99.90
39849;DHT22;25518;47.878;15.914;2023-01-15T07:46:39;2.50;99.90
39849;DHT22;25518;47.878;15.914;2023-01-15T07:49:50;2.50;99.90
39849;DHT22;25518;47.878;15.914;2023-01-15T07:52:40;2.60;99.90
39849;DHT22;25518;47.878;15.914;2023-01-15T07:55:29;2.60;99.90
39849;DHT22;25518;47.878;15.914;2023-01-15T07:58:19;2.60;99.90
39849;DHT22;25518;47.878;15.914;2023-01-15T08:01:08;2.50;99.90
39849;DHT22;25518;47.878;15.914;2023-01-15T08:03:58;2.60;99.90
39849;DHT22;25518;47.878;15.914;2023-01-15T08:06:48;2.70;99.90
39849;DHT22;25518;47.878;15.914;2023-01-15T08:09:38;2.70;99.90
39849;DHT22;25518;47.878;15.914;2023-01-15T08:12:27;2.80;99.90
39849;DHT22;25518;47.878;15.914;2023-01-15T08:15:39;2.80;99.90
39849;DHT22;25518;47.878;15.914;2023-01-15T08:18:29;2.90;99.90
39849;DHT22;25518;47.878;15.914;2023-01-15T08:21:19;2.70;99.90
39849;DHT22;25518;47.878;15.914;2023-01-15T08:24:09;2.80;99.90
39849;DHT22;25518;47.878;15.914;2023-01-15T08:26:59;3.00;99.90
39849;DHT22;25518;47.878;15.914;2023-01-15T08:29:49;3.10;99.90
39849;DHT22;25518;47.878;15.914;2023-01-15T08:32:39;3.20;99.90
39849;DHT22;25518;47.878;15.914;2023-01-15T08:35:28;3.30;99.90
39849;DHT22;25518;47.878;15.914;2023-01-15T08:38:18;3.30;99.90
39849;DHT22;25518;47.878;15.914;2023-01-15T08:41:07;3.50;99.90
39849;DHT22;25518;47.878;15.914;2023-01-15T08:43:57;3.50;99.90
39849;DHT22;25518;47.878;15.914;2023-01-15T08:46:49;3.60;99.90
39849;DHT22;25518;47.878;15.914;2023-01-15T08:49:38;3.50;99.90
39849;DHT22;25518;47.878;15.914;2023-01-15T08:52:28;3.60;99.90
39849;DHT22;25518;47.878;15.914;2023-01-15T08:55:18;3.80;99.90
39849;DHT22;25518;47.878;15.914;2023-01-15T08:58:08;3.80;99.90
39849;DHT22;25518;47.878;15.914;2023-01-15T09:01:07;3.80;99.90
39849;DHT22;25518;47.878;15.914;2023-01-15T09:03:57;3.80;99.90
39849;DHT22;25518;47.878;15.914;2023-01-15T09:06:48;3.80;99.90
39849;DHT22;25518;47.878;15.914;2023-01-15T09:09:38;3.70;99.90
39849;DHT22;25518;47.878;15.914;2023-01-15T09:12:28;3.70;99.90
39849;DHT22;25518;47.878;15.914;2023-01-15T09:15:00;3.80;99.90
39849;DHT22;25518;47.878;15.914;2023-01-15T09:17:31;3.80;99.90
39849;DHT22;25518;47.878;15.914;2023-01-15T09:20:03;4.00;99.90
39849;DHT22;25518;47.878;15.914;2023-01-15T09:22:34;4.10;99.90
39849;DHT22;25518;47.878;15.914;2023-01-15T09:25:06;4.30;99.90
39849;DHT22;25518;47.878;15.914;2023-01-15T09:27:37;4.50;99.90
39849;DHT22;25518;47.878;15.914;2023-01-15T09:30:13;4.50;99.90
39849;DHT22;25518;47.878;15.914;2023-01-15T09:32:46;4.60;99.90
39849;DHT22;25518;47.878;15.914;2023-01-15T09:35:17;4.70;99.90
39849;DHT22;25518;47.878;15.914;2023-01-15T09:37:50;4.80;99.90
39849;DHT22;25518;47.878;15.914;2023-01-15T09:43:17;5.00;99.90
39849;DHT22;25518;47.878;15.914;2023-01-15T09:45:55;5.20;99.90
39849;DHT22;25518;47.878;15.914;2023-01-15T09:56:54;5.50;99.90
39849;DHT22;25518;47.878;15.914;2023-01-15T09:59:28;5.40;99.90
39849;DHT22;25518;47.878;15.914;2023-01-15T10:02:09;5.50;99.90
39849;DHT22;25518;47.878;15.914;2023-01-15T10:04:45;5.50;99.90
39849;DHT22;25518;47.878;15.914;2023-01-15T10:07:26;5.60;99.90
39849;DHT22;25518;47.878;15.914;2023-01-15T10:10:03;5.40;99.90
39849;DHT22;25518;47.878;15.914;2023-01-15T10:12:35;5.30;99.90
39849;DHT22;25518;47.878;15.914;2023-01-15T10:15:46;5.20;99.90
39849;DHT22;25518;47.878;15.914;2023-01-15T10:18:14;5.20;99.90
39849;DHT22;25518;47.878;15.914;2023-01-15T10:24:37;5.20;99.90
39849;DHT22;25518;47.878;15.914;2023-01-15T10:27:21;5.00;99.90
39849;DHT22;25518;47.878;15.914;2023-01-15T10:30:32;5.00;99.90
39849;DHT22;25518;47.878;15.914;2023-01-15T10:37:06;4.80;99.90
39849;DHT22;25518;47.878;15.914;2023-01-15T10:46:09;5.20;99.90
39849;DHT22;25518;47.878;15.914;2023-01-15T10:49:05;5.20;99.90
39849;DHT22;25518;47.878;15.914;2023-01-15T10:52:13;5.30;99.90
39849;DHT22;25518;47.878;15.914;2023-01-15T10:58:41;5.40;99.90
39849;DHT22;25518;47.878;15.914;2023-01-15T11:01:25;5.40;99.90
39849;DHT22;25518;47.878;15.914;2023-01-15T11:04:15;5.40;99.90
39849;DHT22;25518;47.878;15.914;2023-01-15T11:07:07;5.40;99.90
39849;DHT22;25518;47.878;15.914;2023-01-15T11:10:03;5.30;99.90
39849;DHT22;25518;47.878;15.914;2023-01-15T11:12:56;5.30;99.90
39849;DHT22;25518;47.878;15.914;2023-01-15T11:16:13;5.40;99.90
39849;DHT22;25518;47.878;15.914;2023-01-15T11:19:27;5.40;99.90
39849;DHT22;25518;47.878;15.914;2023-01-15T11:22:25;5.50;99.90
39849;DHT22;25518;47.878;15.914;2023-01-15T11:25:27;5.50;99.90
39849;DHT22;25518;47.878;15.914;2023-01-15T11:28:28;5.50;99.90
39849;DHT22;25518;47.878;15.914;2023-01-15T11:31:18;5.50;99.90
39849;DHT22;25518;47.878;15.914;2023-01-15T11:34:19;5.60;99.90
39849;DHT22;25518;47.878;15.914;2023-01-15T11:37:09;5.40;99.90
39849;DHT22;25518;47.878;15.914;2023-01-15T11:40:00;5.50;99.90
39849;DHT22;25518;47.878;15.914;2023-01-15T11:42:56;5.40;99.90
39849;DHT22;25518;47.878;15.914;2023-01-15T11:46:18;5.50;99.90
39849;DHT22;25518;47.878;15.914;2023-01-15T11:49:30;5.50;99.90
39849;DHT22;25518;47.878;15.914;2023-01-15T11:52:44;5.50;99.90
39849;DHT22;25518;47.878;15.914;2023-01-15T11:55:34;5.40;99.90
39849;DHT22;25518;47.878;15.914;2023-01-15T11:58:27;5.40;99.90
39849;DHT22;25518;47.878;15.914;2023-01-15T12:01:32;5.30;99.90
39849;DHT22;25518;47.878;15.914;2023-01-15T12:04:26;5.40;99.90
39849;DHT22;25518;47.878;15.914;2023-01-15T12:07:18;5.50;99.90
39849;DHT22;25518;47.878;15.914;2023-01-15T12:10:16;5.30;99.90
39849;DHT22;25518;47.878;15.914;2023-01-15T12:22:46;5.30;99.90
39849;DHT22;25518;47.878;15.914;2023-01-15T12:25:55;5.20;99.90
39849;DHT22;25518;47.878;15.914;2023-01-15T12:32:21;5.30;99.90
39849;DHT22;25518;47.878;15.914;2023-01-15T12:35:17;5.20;99.90
39849;DHT22;25518;47.878;15.914;2023-01-15T12:38:20;5.30;99.90
39849;DHT22;25518;47.878;15.914;2023-01-15T12:41:15;5.10;99.90
39849;DHT22;25518;47.878;15.914;2023-01-15T12:44:08;5.00;99.90
39849;DHT22;25518;47.878;15.914;2023-01-15T12:47:23;5.00;99.90
39849;DHT22;25518;47.878;15.914;2023-01-15T12:50:35;5.00;99.90
39849;DHT22;25518;47.878;15.914;2023-01-15T12:53:49;4.90;99.90
39849;DHT22;25518;47.878;15.914;2023-01-15T12:59:38;5.00;99.90
39849;DHT22;25518;47.878;15.914;2023-01-15T13:08:53;4.90;99.90
39849;DHT22;25518;47.878;15.914;2023-01-15T13:11:44;5.00;99.90
39849;DHT22;25518;47.878;15.914;2023-01-15T13:14:34;4.90;99.90
39849;DHT22;25518;47.878;15.914;2023-01-15T13:20:49;5.10;99.90
39849;DHT22;25518;47.878;15.914;2023-01-15T13:33:40;4.90;99.90
39849;DHT22;25518;47.878;15.914;2023-01-15T13:36:39;4.90;99.90
39849;DHT22;25518;47.878;15.914;2023-01-15T13:39:38;4.90;99.90
39849;DHT22;25518;47.878;15.914;2023-01-15T13:42:29;4.90;99.90
39849;DHT22;25518;47.878;15.914;2023-01-15T13:45:26;5.00;99.90
39849;DHT22;25518;47.878;15.914;2023-01-15T13:51:38;5.00;99.90
39849;DHT22;25518;47.878;15.914;2023-01-15T13:54:35;5.00;99.90
39849;DHT22;25518;47.878;15.914;2023-01-15T13:57:33;5.00;99.90
39849;DHT22;25518;47.878;15.914;2023-01-15T14:03:26;4.80;99.90
39849;DHT22;25518;47.878;15.914;2023-01-15T14:06:16;4.80;99.90
39849;DHT22;25518;47.878;15.914;2023-01-15T14:12:19;4.70;99.90
39849;DHT22;25518;47.878;15.914;2023-01-15T14:27:56;4.60;99.90
39849;DHT22;25518;47.878;15.914;2023-01-15T14:34:28;4.60;99.90
39849;DHT22;25518;47.878;15.914;2023-01-15T14:40:19;4.50;99.90
39849;DHT22;25518;47.878;15.914;2023-01-15T14:43:16;4.50;99.90
39849;DHT22;25518;47.878;15.914;2023-01-15T14:46:29;4.50;99.90
39849;DHT22;25518;47.878;15.914;2023-01-15T14:49:04;4.50;99.90
39849;DHT22;25518;47.878;15.914;2023-01-15T14:51:46;4.60;99.90
39849;DHT22;25518;47.878;15.914;2023-01-15T14:54:20;4.50;99.90
39849;DHT22;25518;47.878;15.914;2023-01-15T14:56:56;4.60;99.90
39849;DHT22;25518;47.878;15.914;2023-01-15T14:59:53;4.50;99.90
39849;DHT22;25518;47.878;15.914;2023-01-15T15:02:46;4.50;99.90
39849;DHT22;25518;47.878;15.914;2023-01-15T15:05:20;4.60;99.90
39849;DHT22;25518;47.878;15.914;2023-01-15T15:07:53;4.60;99.90
39849;DHT22;25518;47.878;15.914;2023-01-15T15:10:35;4.60;99.90
39849;DHT22;25518;47.878;15.914;2023-01-15T15:13:14;4.70;99.90
39849;DHT22;25518;47.878;15.914;2023-01-15T15:16:24;4.60;99.90
39849;DHT22;25518;47.878;15.914;2023-01-15T15:18:53;4.60;99.90
39849;DHT22;25518;47.878;15.914;2023-01-15T15:21:32;4.60;99.90
39849;DHT22;25518;47.878;15.914;2023-01-15T15:24:28;4.50;99.90
39849;DHT22;25518;47.878;15.914;2023-01-15T15:27:14;4.60;99.90
39849;DHT22;25518;47.878;15.914;2023-01-15T15:29:47;4.80;99.90
39849;DHT22;25518;47.878;15.914;2023-01-15T15:32:20;5.20;99.90
39849;DHT22;25518;47.878;15.914;2023-01-15T15:34:54;5.30;99.90
39849;DHT22;25518;47.878;15.914;2023-01-15T15:37:27;5.30;99.90
39849;DHT22;25518;47.878;15.914;2023-01-15T15:40:18;5.30;99.90
39849;DHT22;25518;47.878;15.914;2023-01-15T15:42:59;5.30;99.90
39849;DHT22;25518;47.878;15.914;2023-01-15T15:45:54;5.20;99.90
39849;DHT22;25518;47.878;15.914;2023-01-15T15:48:50;5.30;99.90
39849;DHT22;25518;47.878;15.914;2023-01-15T15:51:37;5.30;99.90
39849;DHT22;25518;47.878;15.914;2023-01-15T15:57:21;5.20;99.90
39849;DHT22;25518;47.878;15.914;2023-01-15T15:59:52;5.20;99.90
39849;DHT22;25518;47.878;15.914;2023-01-15T16:02:28;5.30;99.90
39849;DHT22;25518;47.878;15.914;2023-01-15T16:05:18;5.30;99.90
39849;DHT22;25518;47.878;15.914;2023-01-15T16:08:16;5.20;99.90
39849;DHT22;25518;47.878;15.914;2023-01-15T16:11:11;5.20;99.90
39849;DHT22;25518;47.878;15.914;2023-01-15T16:14:05;5.10;99.90
39849;DHT22;25518;47.878;15.914;2023-01-15T16:16:55;5.10;99.90
39849;DHT22;25518;47.878;15.914;2023-01-15T16:19:45;5.10;99.90
39849;DHT22;25518;47.878;15.914;2023-01-15T16:22:35;4.90;99.90
39849;DHT22;25518;47.878;15.914;2023-01-15T16:25:35;4.90;99.90
39849;DHT22;25518;47.878;15.914;2023-01-15T16:28:32;4.80;99.90
39849;DHT22;25518;47.878;15.914;2023-01-15T16:31:24;4.80;99.90
39849;DHT22;25518;47.878;15.914;2023-01-15T16:34:18;4.80;99.90
39849;DHT22;25518;47.878;15.914;2023-01-15T16:37:22;4.60;99.90
39849;DHT22;25518;47.878;15.914;2023-01-15T16:40:36;4.60;99.90
39849;DHT22;25518;47.878;15.914;2023-01-15T16:43:28;4.60;99.90
39849;DHT22;25518;47.878;15.914;2023-01-15T16:46:19;4.80;99.90
39849;DHT22;25518;47.878;15.914;2023-01-15T16:55:43;4.80;99.90
39849;DHT22;25518;47.878;15.914;2023-01-15T16:58:35;4.70;99.90
39849;DHT22;25518;47.878;15.914;2023-01-15T17:04:26;4.80;99.90
39849;DHT22;25518;47.878;15.914;2023-01-15T17:07:17;4.70;99.90
39849;DHT22;25518;47.878;15.914;2023-01-15T17:10:19;4.70;99.90
39849;DHT22;25518;47.878;15.914;2023-01-15T17:13:17;4.70;99.90
39849;DHT22;25518;47.878;15.914;2023-01-15T17:16:23;4.70;99.90
39849;DHT22;25518;47.878;15.914;2023-01-15T17:19:14;4.80;99.90
39849;DHT22;25518;47.878;15.914;2023-01-15T17:22:06;4.70;99.90
39849;DHT22;25518;47.878;15.914;2023-01-15T17:25:00;4.70;99.90
39849;DHT22;25518;47.878;15.914;2023-01-15T17:27:49;4.60;99.90
39849;DHT22;25518;47.878;15.914;2023-01-15T17:30:39;4.60;99.90
39849;DHT22;25518;47.878;15.914;2023-01-15T17:33:29;4.60;99.90
39849;DHT22;25518;47.878;15.914;2023-01-15T17:36:19;4.60;99.90
39849;DHT22;25518;47.878;15.914;2023-01-15T17:39:09;4.50;99.90
39849;DHT22;25518;47.878;15.914;2023-01-15T17:42:01;4.60;99.90
39849;DHT22;25518;47.878;15.914;2023-01-15T17:44:51;4.60;99.90
39849;DHT22;25518;47.878;15.914;2023-01-15T17:47:40;4.50;99.90
39849;DHT22;25518;47.878;15.914;2023-01-15T17:50:30;4.60;99.90
39849;DHT22;25518;47.878;15.914;2023-01-15T17:53:20;4.50;99.90
39849;DHT22;25518;47.878;15.914;2023-01-15T17:56:11;4.40;99.90
39849;DHT22;25518;47.878;15.914;2023-01-15T17:59:20;4.40;99.90
39849;DHT22;25518;47.878;15.914;2023-01-15T18:02:30;4.40;99.90
39849;DHT22;25518;47.878;15.914;2023-01-15T18:05:40;4.40;99.90
39849;DHT22;25518;47.878;15.914;2023-01-15T18:08:31;4.40;99.90
39849;DHT22;25518;47.878;15.914;2023-01-15T18:11:22;4.30;99.90
39849;DHT22;25518;47.878;15.914;2023-01-15T18:14:12;4.40;99.90
39849;DHT22;25518;47.878;15.914;2023-01-15T18:17:02;4.50;99.90
39849;DHT22;25518;47.878;15.914;2023-01-15T18:19:52;4.40;99.90
39849;DHT22;25518;47.878;15.914;2023-01-15T18:22:42;4.40;99.90
39849;DHT22;25518;47.878;15.914;2023-01-15T18:25:34;4.40;99.90
39849;DHT22;25518;47.878;15.914;2023-01-15T18:28:23;4.40;99.90
39849;DHT22;25518;47.878;15.914;2023-01-15T18:31:13;3.10;99.90
39849;DHT22;25518;47.878;15.914;2023-01-15T18:34:03;4.40;99.90
39849;DHT22;25518;47.878;15.914;2023-01-15T18:36:53;4.40;99.90
39849;DHT22;25518;47.878;15.914;2023-01-15T18:39:42;4.40;99.90
39849;DHT22;25518;47.878;15.914;2023-01-15T18:42:32;4.40;99.90
39849;DHT22;25518;47.878;15.914;2023-01-15T18:45:46;4.40;99.90
39849;DHT22;25518;47.878;15.914;2023-01-15T18:48:56;4.40;99.90
39849;DHT22;25518;47.878;15.914;2023-01-15T18:51:45;4.50;99.90
39849;DHT22;25518;47.878;15.914;2023-01-15T18:54:55;4.50;99.90
39849;DHT22;25518;47.878;15.914;2023-01-15T18:57:44;4.50;99.90
39849;DHT22;25518;47.878;15.914;2023-01-15T19:00:34;4.50;99.90
39849;DHT22;25518;47.878;15.914;2023-01-15T19:03:24;4.50;99.90
39849;DHT22;25518;47.878;15.914;2023-01-15T19:06:14;4.50;99.90
39849;DHT22;25518;47.878;15.914;2023-01-15T19:09:04;4.50;99.90
39849;DHT22;25518;47.878;15.914;2023-01-15T19:11:53;4.40;99.90
39849;DHT22;25518;47.878;15.914;2023-01-15T19:14:43;4.40;99.90
39849;DHT22;25518;47.878;15.914;2023-01-15T19:17:52;4.30;99.90
39849;DHT22;25518;47.878;15.914;2023-01-15T19:21:08;4.30;99.90
39849;DHT22;25518;47.878;15.914;2023-01-15T19:24:00;4.40;99.90
39849;DHT22;25518;47.878;15.914;2023-01-15T19:26:49;4.40;99.90
39849;DHT22;25518;47.878;15.914;2023-01-15T19:29:39;4.40;99.90
39849;DHT22;25518;47.878;15.914;2023-01-15T19:32:30;4.40;99.90
39849;DHT22;25518;47.878;15.914;2023-01-15T19:35:20;4.40;99.90
39849;DHT22;25518;47.878;15.914;2023-01-15T19:38:09;4.40;99.90
39849;DHT22;25518;47.878;15.914;2023-01-15T19:41:00;4.30;99.90
39849;DHT22;25518;47.878;15.914;2023-01-15T19:44:09;4.30;99.90
39849;DHT22;25518;47.878;15.914;2023-01-15T19:47:25;4.30;99.90
39849;DHT22;25518;47.878;15.914;2023-01-15T19:50:40;4.30;99.90
39849;DHT22;25518;47.878;15.914;2023-01-15T19:53:30;4.40;99.90
39849;DHT22;25518;47.878;15.914;2023-01-15T19:56:19;4.30;99.90
39849;DHT22;25518;47.878;15.914;2023-01-15T19:59:11;4.30;99.90
39849;DHT22;25518;47.878;15.914;2023-01-15T20:02:01;4.30;99.90
39849;DHT22;25518;47.878;15.914;2023-01-15T20:04:52;4.30;99.90
39849;DHT22;25518;47.878;15.914;2023-01-15T20:07:42;4.40;99.90
39849;DHT22;25518;47.878;15.914;2023-01-15T20:10:32;4.40;99.90
39849;DHT22;25518;47.878;15.914;2023-01-15T20:13:23;4.30;99.90
39849;DHT22;25518;47.878;15.914;2023-01-15T20:16:32;4.40;99.90
39849;DHT22;25518;47.878;15.914;2023-01-15T20:19:22;4.40;99.90